Time;durP1;ratioP1;P1;durP2;ratioP2;P2;SDS_P1;SDS_P2;PMS_P1;PMS_P2;Temp;Humidity;BMP_temperature;BMP_pressure;BME280_temperature;BME280_humidity;BME280_pressure;Samples;Min_cycle;Max_cycle;Signal;HPM_P1;HPM_P2
2024/03/06 00:00:48;;;;;;;31.00;12.83;;;3.60;99.90;;;;;;5072202;28;20032;-56
2024/03/06 00:03:13;;;;;;;31.20;12.60;;;3.50;99.90;;;;;;5072087;28;20055;-55
2024/03/06 00:05:39;;;;;;;32.83;13.20;;;3.50;99.90;;;;;;5071743;28;20029;-55
2024/03/06 00:08:05;;;;;;;37.07;13.63;;;3.50;99.90;;;;;;5071727;28;20059;-54
2024/03/06 00:10:30;;;;;;;36.23;13.63;;;3.40;99.90;;;;;;5071719;28;20028;-54
2024/03/06 00:12:56;;;;;;;39.17;13.90;;;3.40;99.90;;;;;;5071633;28;20101;-56
2024/03/06 00:15:22;;;;;;;35.40;14.10;;;3.40;99.90;;;;;;5071546;28;20059;-56
2024/03/06 00:17:47;;;;;;;41.30;16.07;;;3.40;99.90;;;;;;5071702;28;20035;-55
2024/03/06 00:20:13;;;;;;;38.67;13.53;;;3.40;99.90;;;;;;5072051;28;20029;-55
2024/03/06 00:22:39;;;;;;;36.37;13.50;;;3.40;99.90;;;;;;5071550;28;20066;-53
2024/03/06 00:25:05;;;;;;;38.70;14.13;;;3.40;99.90;;;;;;5071573;28;20443;-53
2024/03/06 00:27:31;;;;;;;41.53;13.93;;;3.40;99.90;;;;;;5071614;28;20032;-55
2024/03/06 00:29:57;;;;;;;31.87;12.17;;;3.40;99.90;;;;;;5071860;28;20029;-55
2024/03/06 00:32:23;;;;;;;32.10;12.33;;;3.40;99.90;;;;;;5071887;28;20161;-55
2024/03/06 00:34:49;;;;;;;38.47;12.37;;;3.40;99.90;;;;;;5075570;28;20378;-56
2024/03/06 00:37:15;;;;;;;39.80;13.23;;;3.40;99.90;;;;;;5075495;28;20111;-55
2024/03/06 00:39:40;;;;;;;37.73;13.93;;;3.40;99.90;;;;;;5075458;28;20021;-52
2024/03/06 00:42:08;;;;;;;38.47;15.53;;;3.40;99.90;;;;;;5075414;28;20052;-56
2024/03/06 00:44:34;;;;;;;45.90;14.70;;;3.50;99.90;;;;;;5075545;28;20314;-51
2024/03/06 00:47:00;;;;;;;37.33;13.07;;;3.50;99.90;;;;;;5075467;28;20028;-53
2024/03/06 00:49:25;;;;;;;38.83;14.13;;;3.50;99.90;;;;;;5075311;28;20059;-50
2024/03/06 00:51:51;;;;;;;39.70;13.50;;;3.50;99.90;;;;;;5075169;28;20041;-53
2024/03/06 00:54:17;;;;;;;37.33;13.83;;;3.50;99.90;;;;;;5075370;28;20120;-52
2024/03/06 00:56:42;;;;;;;35.43;15.00;;;3.50;99.90;;;;;;5075158;28;20036;-52
2024/03/06 00:59:08;;;;;;;40.80;13.90;;;3.50;99.90;;;;;;5075186;28;20052;-57
2024/03/06 01:01:34;;;;;;;35.60;12.40;;;3.50;99.90;;;;;;5074908;28;20489;-52
2024/03/06 01:03:59;;;;;;;39.63;13.10;;;3.50;99.90;;;;;;5075101;28;20032;-54
2024/03/06 01:06:25;;;;;;;35.93;13.47;;;3.50;99.90;;;;;;5075034;28;20024;-49
2024/03/06 01:08:51;;;;;;;36.97;13.17;;;3.40;99.90;;;;;;5074941;28;20034;-49
2024/03/06 01:11:16;;;;;;;39.47;14.87;;;3.40;99.90;;;;;;5074865;28;20028;-50
2024/03/06 01:13:42;;;;;;;43.57;15.07;;;3.40;99.90;;;;;;5074954;28;20071;-51
2024/03/06 01:16:07;;;;;;;43.40;15.17;;;3.40;99.90;;;;;;5074670;28;20398;-51
2024/03/06 01:18:33;;;;;;;35.57;13.70;;;3.40;99.90;;;;;;5074780;28;20473;-52
2024/03/06 01:20:59;;;;;;;34.03;13.33;;;3.40;99.90;;;;;;5074949;28;20031;-54
2024/03/06 01:23:25;;;;;;;38.50;13.90;;;3.40;99.90;;;;;;5074603;28;20025;-53
2024/03/06 01:25:51;;;;;;;38.03;12.63;;;3.40;99.90;;;;;;5074619;28;20473;-51
2024/03/06 01:28:17;;;;;;;35.77;14.30;;;3.30;99.90;;;;;;5074721;28;20060;-52
2024/03/06 01:30:43;;;;;;;40.17;13.47;;;3.30;99.90;;;;;;5074554;28;20036;-52
2024/03/06 01:33:09;;;;;;;35.80;14.20;;;3.30;99.90;;;;;;5074419;28;20040;-52
2024/03/06 01:35:35;;;;;;;41.23;14.10;;;3.30;99.90;;;;;;5074488;28;20036;-53
2024/03/06 01:38:01;;;;;;;37.53;13.60;;;3.30;99.90;;;;;;5074413;28;20389;-50
2024/03/06 01:40:28;;;;;;;40.13;14.23;;;3.20;99.90;;;;;;5074372;28;20024;-53
2024/03/06 01:42:54;;;;;;;41.10;15.20;;;3.20;99.90;;;;;;5074162;28;20032;-50
2024/03/06 01:45:20;;;;;;;37.00;14.13;;;3.10;99.90;;;;;;5073630;28;20114;-51
2024/03/06 01:47:45;;;;;;;36.80;13.90;;;3.10;99.90;;;;;;5074285;28;20024;-54
2024/03/06 01:50:11;;;;;;;37.77;13.63;;;3.10;99.90;;;;;;5074268;28;20391;-54
2024/03/06 01:52:39;;;;;;;36.80;14.60;;;3.10;99.90;;;;;;5074082;28;20093;-50
2024/03/06 01:55:06;;;;;;;36.97;13.50;;;3.10;99.90;;;;;;5074217;28;20103;-53
2024/03/06 01:57:34;;;;;;;38.17;14.17;;;3.20;99.90;;;;;;5074105;28;20101;-53
2024/03/06 02:00:01;;;;;;;44.17;15.40;;;3.20;99.90;;;;;;5073990;28;20025;-54
2024/03/06 02:02:27;;;;;;;37.23;15.53;;;3.20;99.90;;;;;;5073926;28;20032;-51
2024/03/06 02:04:54;;;;;;;41.67;15.17;;;3.30;99.90;;;;;;5073983;28;20028;-54
2024/03/06 02:07:20;;;;;;;44.70;15.13;;;3.30;99.90;;;;;;5073974;28;20071;-55
2024/03/06 02:09:46;;;;;;;40.17;15.77;;;3.30;99.90;;;;;;5073930;28;20033;-53
2024/03/06 02:12:13;;;;;;;41.90;15.00;;;3.30;99.90;;;;;;5073756;28;20089;-54
2024/03/06 02:14:38;;;;;;;33.03;13.87;;;3.20;99.90;;;;;;5073839;28;20389;-56
2024/03/06 02:17:04;;;;;;;44.97;15.53;;;3.20;99.90;;;;;;5073575;28;20036;-51
2024/03/06 02:19:40;;;;;;;35.23;15.23;;;3.20;99.90;;;;;;5073735;28;20035;-55
2024/03/06 02:22:07;;;;;;;48.27;21.80;;;3.20;99.90;;;;;;5073547;28;20063;-55
2024/03/06 02:24:33;;;;;;;51.03;21.67;;;3.20;99.90;;;;;;5073583;28;20040;-52
2024/03/06 02:26:59;;;;;;;52.00;21.27;;;3.20;99.90;;;;;;5073649;28;20075;-53
2024/03/06 02:29:25;;;;;;;60.23;23.50;;;3.20;99.90;;;;;;5073479;28;20054;-55
2024/03/06 02:31:50;;;;;;;51.87;22.43;;;3.20;99.90;;;;;;5073436;28;20591;-55
2024/03/06 02:34:16;;;;;;;57.00;22.17;;;3.20;99.90;;;;;;5073469;28;20542;-56
2024/03/06 02:36:42;;;;;;;49.97;18.80;;;3.10;99.90;;;;;;5073313;28;20479;-55
2024/03/06 02:39:08;;;;;;;45.80;18.47;;;3.10;99.90;;;;;;5073349;28;20025;-54
2024/03/06 02:41:36;;;;;;;49.67;18.40;;;3.10;99.90;;;;;;5073089;28;20024;-51
2024/03/06 02:44:02;;;;;;;41.90;16.03;;;3.00;99.90;;;;;;5071948;28;20024;-53
2024/03/06 02:46:28;;;;;;;48.10;18.40;;;3.00;99.90;;;;;;5073133;28;20512;-51
2024/03/06 02:48:54;;;;;;;43.37;16.87;;;3.00;99.90;;;;;;5073121;28;20036;-55
2024/03/06 02:51:21;;;;;;;44.80;17.50;;;3.00;99.90;;;;;;5072954;28;20036;-54
2024/03/06 02:53:48;;;;;;;41.77;16.43;;;3.00;99.90;;;;;;5073115;28;20044;-53
2024/03/06 02:56:18;;;;;;;42.50;17.10;;;3.00;99.90;;;;;;5071826;28;20115;-55
2024/03/06 02:58:44;;;;;;;;;;;2.90;99.90;;;;;;5072215;28;20033;-53
2024/03/06 03:01:10;;;;;;;42.33;15.13;;;2.90;99.90;;;;;;5072709;28;19962;-55
2024/03/06 03:03:35;;;;;;;39.67;15.13;;;2.80;99.90;;;;;;5073017;28;20476;-53
2024/03/06 03:06:01;;;;;;;41.00;15.60;;;2.80;99.90;;;;;;5072937;28;20024;-54
2024/03/06 03:08:27;;;;;;;38.47;15.73;;;2.80;99.90;;;;;;5072860;28;20054;-55
2024/03/06 03:10:52;;;;;;;40.27;14.97;;;2.80;99.90;;;;;;5072661;28;20100;-56
2024/03/06 03:13:18;;;;;;;41.57;13.67;;;2.80;99.90;;;;;;5071201;28;20419;-54
2024/03/06 03:15:44;;;;;;;40.80;13.43;;;2.80;99.90;;;;;;5072510;28;20078;-54
2024/03/06 03:18:09;;;;;;;37.50;14.97;;;2.80;99.90;;;;;;5072593;28;20230;-55
2024/03/06 03:20:36;;;;;;;34.20;14.53;;;2.80;99.90;;;;;;5072478;28;20061;-55
2024/03/06 03:23:02;;;;;;;40.67;14.67;;;2.70;99.90;;;;;;5072417;28;20024;-55
2024/03/06 03:25:27;;;;;;;40.03;14.50;;;2.70;99.90;;;;;;5072380;28;20040;-55
2024/03/06 03:27:53;;;;;;;40.63;14.90;;;2.60;99.90;;;;;;5072294;28;20086;-55
2024/03/06 03:30:21;;;;;;;39.83;13.60;;;2.60;99.90;;;;;;5072261;28;20063;-55
2024/03/06 03:32:50;;;;;;;39.00;15.00;;;2.60;99.90;;;;;;5072277;28;20029;-55
2024/03/06 03:35:15;;;;;;;36.93;14.23;;;2.60;99.90;;;;;;5072153;28;20481;-55
2024/03/06 03:37:43;;;;;;;40.10;15.03;;;2.60;99.90;;;;;;5072237;28;20036;-54
2024/03/06 03:40:11;;;;;;;38.60;13.87;;;2.60;99.90;;;;;;5072197;28;20397;-55
2024/03/06 03:42:38;;;;;;;43.10;14.23;;;2.60;99.90;;;;;;5072069;28;20086;-55
2024/03/06 03:45:04;;;;;;;41.27;14.77;;;2.50;99.90;;;;;;5072086;28;20048;-54
2024/03/06 03:47:30;;;;;;;44.37;16.27;;;2.50;99.90;;;;;;5072197;28;20064;-53
2024/03/06 03:49:56;;;;;;;39.37;14.67;;;2.50;99.90;;;;;;5072018;28;20057;-55
2024/03/06 03:52:22;;;;;;;45.83;15.03;;;2.40;99.90;;;;;;5071967;28;20094;-54
2024/03/06 03:54:48;;;;;;;38.80;15.00;;;2.50;99.90;;;;;;5072034;28;20055;-54
2024/03/06 03:57:14;;;;;;;37.33;14.80;;;2.50;99.90;;;;;;5072033;28;20078;-55
2024/03/06 03:59:41;;;;;;;46.80;14.60;;;2.50;99.90;;;;;;5072163;28;20024;-53
2024/03/06 04:02:06;;;;;;;40.97;15.93;;;2.50;99.90;;;;;;5071960;28;20041;-53
2024/03/06 04:04:33;;;;;;;39.13;15.60;;;2.50;99.90;;;;;;5072116;28;20031;-54
2024/03/06 04:07:01;;;;;;;41.00;14.00;;;2.50;99.90;;;;;;5071759;28;20036;-50
2024/03/06 04:09:27;;;;;;;46.43;16.30;;;2.40;99.90;;;;;;5071758;28;20218;-54
2024/03/06 04:11:53;;;;;;;42.07;15.67;;;2.40;99.90;;;;;;5071699;28;20078;-50
2024/03/06 04:14:21;;;;;;;48.00;16.33;;;2.50;99.90;;;;;;5071730;28;20394;-53
2024/03/06 04:16:48;;;;;;;43.58;15.35;;;2.50;99.90;;;;;;5071636;28;20350;-52
2024/03/06 04:19:14;;;;;;;42.10;13.83;;;2.50;99.90;;;;;;5071553;28;20048;-52
2024/03/06 04:21:43;;;;;;;43.80;14.17;;;2.50;99.90;;;;;;5071576;28;20035;-54
2024/03/06 04:24:09;;;;;;;49.13;16.95;;;2.50;99.90;;;;;;5072031;28;20032;-55
2024/03/06 04:26:35;;;;;;;51.70;17.13;;;2.50;99.90;;;;;;5071573;28;20035;-53
2024/03/06 04:29:00;;;;;;;44.03;15.63;;;2.50;99.90;;;;;;5071658;28;20115;-54
2024/03/06 04:31:26;;;;;;;49.47;17.90;;;2.50;99.90;;;;;;5071395;28;20111;-54
2024/03/06 04:33:52;;;;;;;49.70;16.33;;;2.40;99.90;;;;;;5071523;28;20036;-54
2024/03/06 04:36:18;;;;;;;41.87;16.10;;;2.40;99.90;;;;;;5071375;28;20036;-52
2024/03/06 04:38:43;;;;;;;41.77;15.60;;;2.40;99.90;;;;;;5070260;28;20099;-51
2024/03/06 04:41:10;;;;;;;44.60;16.13;;;2.40;99.90;;;;;;5071427;28;20032;-55
2024/03/06 04:43:36;;;;;;;47.70;16.80;;;2.40;99.90;;;;;;5071417;28;20029;-52
2024/03/06 04:46:02;;;;;;;41.53;16.10;;;2.40;99.90;;;;;;5071624;28;20074;-52
2024/03/06 04:48:28;;;;;;;43.03;16.10;;;2.50;99.90;;;;;;5071427;28;20485;-54
2024/03/06 04:50:53;;;;;;;39.67;15.37;;;2.50;99.90;;;;;;5071263;28;20081;-54
2024/03/06 04:53:22;;;;;;;48.83;18.70;;;2.50;99.90;;;;;;5071174;28;20056;-55
2024/03/06 04:55:48;;;;;;;50.00;17.17;;;2.50;99.90;;;;;;5071354;28;20028;-54
2024/03/06 04:58:13;;;;;;;45.87;16.30;;;2.50;99.90;;;;;;5071332;28;20597;-55
2024/03/06 05:00:39;;;;;;;48.93;16.80;;;2.50;99.90;;;;;;5070089;28;20067;-54
2024/03/06 05:03:05;;;;;;;50.23;18.77;;;2.60;99.90;;;;;;5071166;28;20028;-56
2024/03/06 05:05:30;;;;;;;59.23;21.33;;;2.60;99.90;;;;;;5071194;28;20037;-55
2024/03/06 05:07:56;;;;;;;59.90;21.37;;;2.50;99.90;;;;;;5071215;28;20440;-54
2024/03/06 05:10:22;;;;;;;54.57;19.50;;;2.50;99.90;;;;;;5071208;28;20123;-56
2024/03/06 05:12:48;;;;;;;53.37;19.50;;;2.50;99.90;;;;;;5071101;28;20409;-52
2024/03/06 05:15:13;;;;;;;63.10;21.00;;;2.50;99.90;;;;;;5070943;28;20025;-53
2024/03/06 05:17:39;;;;;;;54.37;20.27;;;2.50;99.90;;;;;;5071006;28;20037;-52
2024/03/06 05:20:05;;;;;;;51.87;19.30;;;2.50;99.90;;;;;;5072614;28;20020;-55
2024/03/06 05:22:31;;;;;;;49.87;20.47;;;2.50;99.90;;;;;;5074584;28;20029;-54
2024/03/06 05:24:58;;;;;;;51.23;19.50;;;2.50;99.90;;;;;;5074786;28;20040;-55
2024/03/06 05:27:24;;;;;;;54.13;20.10;;;2.50;99.90;;;;;;5074780;28;20036;-56
2024/03/06 05:29:49;;;;;;;49.30;17.83;;;2.50;99.90;;;;;;5074667;28;20029;-56
2024/03/06 05:32:15;;;;;;;47.43;17.50;;;2.50;99.90;;;;;;5074573;28;20029;-56
2024/03/06 05:34:41;;;;;;;51.70;17.83;;;2.50;99.90;;;;;;5074531;28;20085;-55
2024/03/06 05:37:07;;;;;;;43.17;15.47;;;2.50;99.90;;;;;;5074561;28;20067;-54
2024/03/06 05:39:33;;;;;;;52.00;17.80;;;2.50;99.90;;;;;;5074405;28;20047;-56
2024/03/06 05:42:03;;;;;;;48.33;16.80;;;2.50;99.90;;;;;;5074560;28;20385;-52
2024/03/06 05:44:32;;;;;;;42.87;15.90;;;2.50;99.90;;;;;;5074277;28;20025;-53
2024/03/06 05:46:59;;;;;;;40.42;14.63;;;2.40;99.90;;;;;;5074445;28;20039;-53
2024/03/06 05:49:25;;;;;;;40.53;15.43;;;2.40;99.90;;;;;;5072903;28;20032;-50
2024/03/06 05:51:51;;;;;;;47.23;17.30;;;2.40;99.90;;;;;;5074170;28;20028;-54
2024/03/06 05:54:16;;;;;;;40.43;15.10;;;2.40;99.90;;;;;;5074203;28;20029;-53
2024/03/06 05:56:42;;;;;;;39.97;14.73;;;2.50;99.90;;;;;;5074196;28;20040;-55
2024/03/06 05:59:08;;;;;;;45.37;15.57;;;2.50;99.90;;;;;;5074156;28;20507;-54
2024/03/06 06:01:36;;;;;;;42.70;16.07;;;2.50;99.90;;;;;;5073893;28;20033;-54
2024/03/06 06:04:02;;;;;;;44.47;14.70;;;2.60;99.90;;;;;;5074113;28;20043;-56
2024/03/06 06:06:28;;;;;;;46.57;16.07;;;2.70;99.90;;;;;;5073957;28;20112;-55
2024/03/06 06:08:54;;;;;;;44.57;15.20;;;2.70;99.90;;;;;;5074034;28;20028;-52
2024/03/06 06:11:19;;;;;;;41.83;15.23;;;2.80;99.90;;;;;;5073678;28;20028;-52
2024/03/06 06:13:45;;;;;;;47.03;15.77;;;2.80;99.90;;;;;;5073802;28;20047;-51
2024/03/06 06:16:12;;;;;;;45.63;16.07;;;2.80;99.90;;;;;;5073599;28;20032;-54
2024/03/06 06:18:40;;;;;;;38.43;13.67;;;2.80;99.90;;;;;;5073635;28;20127;-51
2024/03/06 06:21:07;;;;;;;40.80;15.68;;;2.90;99.90;;;;;;5072410;28;20037;-49
2024/03/06 06:23:34;;;;;;;40.17;14.13;;;2.90;99.90;;;;;;5073524;28;20638;-52
2024/03/06 06:25:59;;;;;;;41.97;15.73;;;2.90;99.90;;;;;;5073661;28;20155;-49
2024/03/06 06:28:25;;;;;;;44.33;15.90;;;2.90;99.90;;;;;;5073530;28;20092;-53
2024/03/06 06:30:52;;;;;;;43.53;15.60;;;2.90;99.90;;;;;;5073285;28;20029;-53
2024/03/06 06:33:19;;;;;;;44.27;15.67;;;3.00;99.90;;;;;;5073225;28;20154;-53
2024/03/06 06:35:45;;;;;;;42.87;14.27;;;3.00;99.90;;;;;;5073333;28;20033;-53
2024/03/06 06:38:10;;;;;;;41.67;15.03;;;3.10;99.90;;;;;;5073327;28;20036;-52
2024/03/06 06:40:36;;;;;;;45.50;15.90;;;3.10;99.90;;;;;;5073260;28;20034;-54
2024/03/06 06:43:01;;;;;;;41.87;16.87;;;3.20;99.90;;;;;;5073157;28;20031;-54
2024/03/06 06:45:27;;;;;;;50.77;17.63;;;3.20;99.90;;;;;;5073083;28;20066;-55
2024/03/06 06:47:53;;;;;;;41.53;15.50;;;3.20;99.90;;;;;;5073227;28;20024;-51
2024/03/06 06:50:21;;;;;;;38.57;14.33;;;3.30;99.90;;;;;;5073085;28;20120;-53
2024/03/06 06:52:47;;;;;;;40.47;14.77;;;3.30;99.90;;;;;;5072951;28;20081;-52
2024/03/06 06:55:13;;;;;;;47.53;16.10;;;3.30;99.90;;;;;;5072990;28;20040;-50
2024/03/06 06:57:39;;;;;;;51.90;19.97;;;3.40;99.90;;;;;;5072967;28;20079;-54
2024/03/06 07:00:11;;;;;;;47.57;17.90;;;3.50;99.90;;;;;;5072768;28;20166;-51
2024/03/06 07:02:39;;;;;;;45.70;16.80;;;3.60;99.90;;;;;;5072724;28;20021;-55
2024/03/06 07:05:05;;;;;;;45.83;16.60;;;3.70;99.90;;;;;;5071762;28;20031;-54
2024/03/06 07:07:31;;;;;;;47.90;17.63;;;3.70;99.90;;;;;;5072757;28;20040;-52
2024/03/06 07:09:56;;;;;;;46.73;17.67;;;3.80;99.90;;;;;;5072726;28;20029;-55
2024/03/06 07:12:22;;;;;;;47.53;16.97;;;3.80;99.90;;;;;;5072643;28;20494;-51
2024/03/06 07:14:47;;;;;;;52.13;18.77;;;4.00;99.90;;;;;;5072559;28;20032;-53
2024/03/06 07:17:13;;;;;;;45.70;17.23;;;4.10;99.90;;;;;;5072589;28;20235;-53
2024/03/06 07:19:39;;;;;;;46.77;16.53;;;4.30;99.90;;;;;;5072540;28;20381;-55
2024/03/06 07:22:05;;;;;;;44.07;15.90;;;4.40;99.90;;;;;;5072427;28;20427;-55
2024/03/06 07:24:31;;;;;;;43.53;17.83;;;4.60;99.90;;;;;;5072388;28;20024;-55
2024/03/06 07:26:56;;;;;;;46.13;16.90;;;4.70;99.90;;;;;;5072547;28;20435;-55
2024/03/06 07:29:22;;;;;;;45.53;15.90;;;4.80;99.90;;;;;;5072578;28;20381;-55
2024/03/06 07:31:48;;;;;;;45.33;17.33;;;4.90;99.90;;;;;;5072206;28;20040;-54
2024/03/06 07:34:14;;;;;;;49.53;18.17;;;5.10;99.90;;;;;;5072306;28;20033;-57
2024/03/06 07:36:40;;;;;;;48.60;17.67;;;5.20;99.90;;;;;;5072154;28;20037;-54
2024/03/06 07:39:09;;;;;;;41.77;17.57;;;5.30;99.90;;;;;;5072206;28;20115;-53
2024/03/06 07:41:35;;;;;;;47.40;16.85;;;5.40;99.90;;;;;;5071977;28;20090;-54
2024/03/06 07:44:01;;;;;;;47.43;17.77;;;5.60;99.90;;;;;;5071607;28;20032;-53
2024/03/06 07:46:27;;;;;;;49.43;17.53;;;5.80;99.90;;;;;;5072096;28;20028;-51
2024/03/06 07:48:52;;;;;;;48.10;17.03;;;6.00;99.90;;;;;;5072119;28;20437;-52
2024/03/06 07:51:18;;;;;;;43.87;16.53;;;6.20;99.90;;;;;;5072057;28;20024;-54
2024/03/06 07:53:44;;;;;;;41.53;17.07;;;6.50;99.90;;;;;;5072123;28;20021;-53
2024/03/06 07:56:12;;;;;;;41.93;17.07;;;6.80;99.90;;;;;;5071940;28;20393;-53
2024/03/06 07:58:38;;;;;;;41.10;17.23;;;7.00;99.90;;;;;;5071766;28;20052;-51
2024/03/06 08:01:04;;;;;;;42.13;17.00;;;7.30;99.90;;;;;;5072138;28;20024;-51
2024/03/06 08:03:30;;;;;;;43.63;16.70;;;7.70;99.90;;;;;;5071631;28;20504;-54
2024/03/06 08:05:55;;;;;;;39.97;16.80;;;8.00;99.90;;;;;;5071629;28;20036;-55
2024/03/06 08:08:21;;;;;;;40.57;17.33;;;8.20;99.90;;;;;;5071802;28;20058;-53
2024/03/06 08:10:47;;;;;;;37.60;15.20;;;8.30;99.90;;;;;;5071768;28;20029;-53
2024/03/06 08:13:13;;;;;;;41.13;16.53;;;8.30;99.90;;;;;;5071656;28;20389;-54
2024/03/06 08:15:39;;;;;;;35.83;15.50;;;8.50;99.90;;;;;;5071620;28;20028;-55
2024/03/06 08:18:06;;;;;;;41.77;17.37;;;8.50;99.90;;;;;;5071723;28;20028;-55
2024/03/06 08:20:32;;;;;;;38.53;15.90;;;8.60;99.90;;;;;;5071657;28;20024;-57
2024/03/06 08:22:58;;;;;;;35.67;15.43;;;8.80;99.90;;;;;;5071743;28;20032;-57
2024/03/06 08:25:24;;;;;;;36.97;15.83;;;8.90;99.90;;;;;;5071649;28;20029;-55
2024/03/06 08:27:49;;;;;;;37.13;15.67;;;9.10;99.90;;;;;;5071616;28;20031;-55
2024/03/06 08:30:15;;;;;;;42.70;16.90;;;9.30;99.90;;;;;;5071605;28;20485;-53
2024/03/06 08:32:43;;;;;;;33.90;15.83;;;9.50;99.90;;;;;;5071480;28;20038;-55
2024/03/06 08:35:13;;;;;;;39.07;16.27;;;9.80;99.90;;;;;;5071528;28;20029;-55
2024/03/06 08:37:39;;;;;;;;;;;10.00;99.90;;;;;;5072019;28;20085;-55
2024/03/06 08:40:05;;;;;;;35.53;14.70;;;10.00;99.90;;;;;;5071602;28;19931;-56
2024/03/06 08:42:32;;;;;;;38.27;15.63;;;9.90;99.90;;;;;;5071224;28;20025;-54
2024/03/06 08:44:58;;;;;;;33.37;14.17;;;9.80;99.90;;;;;;5071443;28;20036;-55
2024/03/06 08:47:23;;;;;;;39.97;15.90;;;9.60;99.90;;;;;;5071459;28;20033;-55
2024/03/06 08:49:49;;;;;;;35.80;16.90;;;9.60;99.90;;;;;;5071529;28;20381;-54
2024/03/06 08:52:15;;;;;;;35.87;14.43;;;9.50;99.90;;;;;;5071473;28;20029;-56
2024/03/06 08:54:41;;;;;;;36.67;15.40;;;9.50;99.90;;;;;;5072660;28;20615;-56
2024/03/06 08:57:08;;;;;;;34.33;14.07;;;9.50;99.90;;;;;;5075167;28;20396;-55
2024/03/06 08:59:34;;;;;;;41.00;15.73;;;9.60;99.90;;;;;;5074208;28;20033;-55
2024/03/06 09:02:19;;;;;;;38.53;15.63;;;9.50;99.90;;;;;;5075210;28;20034;-56
2024/03/06 09:04:45;;;;;;;36.53;15.17;;;9.60;99.90;;;;;;5075122;28;20477;-55
2024/03/06 09:07:12;;;;;;;38.70;16.17;;;9.50;99.90;;;;;;5075142;28;20536;-55
2024/03/06 09:09:38;;;;;;;38.13;15.40;;;9.20;99.90;;;;;;5074945;28;20040;-55
2024/03/06 09:12:05;;;;;;;53.33;22.70;;;9.20;99.90;;;;;;5074868;28;20032;-54
2024/03/06 09:14:33;;;;;;;37.87;16.57;;;9.10;99.90;;;;;;5073796;28;20031;-55
2024/03/06 09:16:59;;;;;;;39.53;15.98;;;9.00;99.90;;;;;;5074835;28;20036;-56
2024/03/06 09:19:25;;;;;;;38.10;16.00;;;9.00;99.90;;;;;;5074819;28;20024;-55
2024/03/06 09:21:51;;;;;;;41.10;16.90;;;8.90;99.90;;;;;;5074742;28;20027;-55
2024/03/06 09:24:16;;;;;;;42.23;17.50;;;8.80;99.90;;;;;;5075212;28;20413;-55
2024/03/06 09:26:43;;;;;;;37.13;16.60;;;8.80;99.90;;;;;;5074651;28;20032;-55
2024/03/06 09:29:08;;;;;;;37.67;16.23;;;8.90;99.90;;;;;;5074644;28;20029;-56
2024/03/06 09:31:34;;;;;;;42.40;16.57;;;9.00;99.90;;;;;;5074465;28;20059;-56
2024/03/06 09:34:00;;;;;;;42.50;17.17;;;9.00;99.90;;;;;;5074745;28;20028;-55
2024/03/06 09:36:25;;;;;;;40.27;17.30;;;9.20;99.90;;;;;;5074487;28;20512;-56
2024/03/06 09:38:52;;;;;;;40.10;16.70;;;9.30;99.90;;;;;;5074463;28;20040;-56
2024/03/06 09:41:18;;;;;;;39.00;15.73;;;9.50;99.90;;;;;;5074175;28;20024;-55
2024/03/06 09:43:44;;;;;;;36.63;16.50;;;9.80;99.90;;;;;;5074409;28;20071;-55
2024/03/06 09:46:10;;;;;;;35.30;15.33;;;9.90;99.90;;;;;;5074456;28;20056;-56
2024/03/06 09:48:41;;;;;;;36.60;16.30;;;10.10;99.90;;;;;;5056275;28;20063;-56
2024/03/06 09:51:07;;;;;;;38.33;15.10;;;10.10;99.90;;;;;;5074169;28;20499;-54
2024/03/06 09:53:33;;;;;;;35.63;15.83;;;10.00;99.90;;;;;;5074107;28;20029;-55
2024/03/06 09:56:00;;;;;;;35.33;15.03;;;9.90;99.90;;;;;;5074057;28;20035;-55
2024/03/06 09:58:26;;;;;;;36.80;16.03;;;10.00;99.90;;;;;;5074087;28;20052;-55
2024/03/06 10:00:55;;;;;;;35.17;15.83;;;10.20;99.90;;;;;;5074178;28;20417;-55
2024/03/06 10:03:20;;;;;;;36.55;15.05;;;10.40;99.90;;;;;;5074032;28;20032;-55
2024/03/06 10:05:46;;;;;;;33.17;14.88;;;10.70;99.90;;;;;;5073315;28;20024;-55
2024/03/06 10:08:12;;;;;;;32.13;15.05;;;11.10;99.90;;;;;;5074013;28;20397;-55
2024/03/06 10:10:37;;;;;;;31.60;14.30;;;11.10;99.90;;;;;;5073842;28;20039;-53
2024/03/06 10:13:03;;;;;;;31.20;14.20;;;11.20;99.90;;;;;;5073811;28;20043;-55
2024/03/06 10:15:29;;;;;;;31.45;13.75;;;11.40;99.90;;;;;;5073827;28;20033;-55
2024/03/06 10:18:14;;;;;;;34.92;14.50;;;11.60;99.90;;;;;;5073863;28;20436;-55
2024/03/06 10:20:43;;;;;;;30.90;14.35;;;11.90;99.90;;;;;;5073685;28;20028;-55
2024/03/06 10:23:09;;;;;;;27.95;13.85;;;12.70;99.90;;;;;;5073623;28;20032;-55
2024/03/06 10:25:35;;;;;;;31.40;14.38;;;13.40;99.90;;;;;;5073574;28;20047;-55
2024/03/06 10:28:07;;;;;;;30.95;15.30;;;13.90;99.90;;;;;;5073597;28;20477;-54
2024/03/06 10:30:35;;;;;;;32.00;16.05;;;14.10;99.90;;;;;;5073359;28;20043;-54
2024/03/06 10:33:05;;;;;;;30.15;15.18;;;13.30;99.90;;;;;;5073412;28;20047;-55
2024/03/06 10:35:37;;;;;;;32.08;15.77;;;13.00;99.90;;;;;;5073376;28;20039;-55
2024/03/06 10:38:04;;;;;;;33.63;15.95;;;12.70;99.90;;;;;;5073410;28;20170;-55
2024/03/06 10:40:35;;;;;;;35.28;16.35;;;12.50;99.90;;;;;;5073307;28;20032;-56
2024/03/06 10:43:03;;;;;;;35.08;16.13;;;12.40;99.90;;;;;;5073234;28;20528;-55
2024/03/06 10:45:49;;;;;;;31.10;14.93;;;12.30;99.90;;;;;;5073156;28;20025;-55
2024/03/06 10:48:15;;;;;;;34.30;15.90;;;12.50;99.90;;;;;;5073342;28;20466;-56
2024/03/06 10:50:45;;;;;;;31.88;15.52;;;12.60;99.90;;;;;;5073149;28;20405;-54
2024/03/06 10:53:17;;;;;;;35.95;16.17;;;13.10;99.90;;;;;;5073062;28;20485;-56
2024/03/06 10:55:45;;;;;;;32.72;16.38;;;14.10;99.90;;;;;;5072867;28;20036;-56
2024/03/06 10:58:11;;;;;;;31.30;15.65;;;15.40;99.90;;;;;;5073039;28;20135;-56
2024/03/06 11:00:42;;;;;;;30.48;15.90;;;16.00;99.90;;;;;;5072955;28;20056;-56
2024/03/06 11:03:11;;;;;;;31.60;16.38;;;16.80;99.90;;;;;;5072820;28;20124;-54
2024/03/06 11:05:42;;;;;;;33.38;16.83;;;17.20;99.90;;;;;;5072971;28;20024;-56
2024/03/06 11:08:10;;;;;;;33.60;17.30;;;17.20;99.90;;;;;;5072847;28;20551;-56
2024/03/06 11:10:38;;;;;;;27.92;14.43;;;17.20;99.90;;;;;;5072688;28;20032;-56
2024/03/06 11:13:08;;;;;;;32.78;16.50;;;17.30;99.90;;;;;;5072652;28;20047;-54
2024/03/06 11:15:34;;;;;;;33.65;17.92;;;17.40;99.90;;;;;;5072571;28;20036;-56
2024/03/06 11:18:28;;;;;;;30.48;16.60;;;17.90;99.90;;;;;;5071778;28;20039;-56
2024/03/06 11:21:03;;;;;;;29.27;15.90;;;18.40;99.90;;;;;;5072426;28;20032;-56
2024/03/06 11:23:29;;;;;;;26.83;14.48;;;18.70;99.90;;;;;;5071220;28;20029;-53
2024/03/06 11:25:58;;;;;;;32.95;16.45;;;19.30;98.60;;;;;;5072391;28;20036;-55
2024/03/06 11:28:27;;;;;;;30.73;16.33;;;18.80;99.90;;;;;;5072536;28;20501;-55
2024/03/06 11:31:06;;;;;;;28.85;15.60;;;18.20;99.90;;;;;;5072298;28;20036;-55
2024/03/06 11:33:37;;;;;;;31.08;16.52;;;17.80;99.90;;;;;;5072338;28;20031;-54
2024/03/06 11:36:19;;;;;;;31.63;16.38;;;17.90;99.90;;;;;;5072299;28;20041;-55
2024/03/06 11:39:09;;;;;;;30.15;15.85;;;17.90;99.90;;;;;;5072130;28;20041;-55
2024/03/06 11:41:35;;;;;;;31.60;16.60;;;17.50;99.90;;;;;;5072034;28;20029;-54
2024/03/06 11:44:01;;;;;;;27.95;14.23;;;16.90;99.90;;;;;;5072112;28;20036;-57
2024/03/06 11:46:58;;;;;;;31.17;15.30;;;17.00;99.90;;;;;;5072173;28;20402;-55
2024/03/06 11:49:25;;;;;;;27.85;15.57;;;17.00;99.90;;;;;;5072340;28;20166;-55
2024/03/06 11:51:52;;;;;;;29.40;15.57;;;17.20;99.90;;;;;;5071787;28;20082;-56
2024/03/06 11:54:23;;;;;;;31.52;15.93;;;17.00;99.90;;;;;;5071978;28;20111;-55
2024/03/06 11:56:53;;;;;;;29.60;15.23;;;17.10;99.90;;;;;;5072475;28;20029;-56
2024/03/06 11:59:26;;;;;;;31.20;15.35;;;16.90;99.90;;;;;;5071925;28;20028;-53
2024/03/06 12:01:56;;;;;;;29.85;15.70;;;16.30;99.90;;;;;;5070853;28;20051;-55
2024/03/06 12:04:22;;;;;;;29.42;14.95;;;15.60;99.90;;;;;;5071872;28;20043;-54
2024/03/06 12:06:49;;;;;;;32.25;14.93;;;14.80;99.90;;;;;;5071885;28;20397;-55
2024/03/06 12:09:15;;;;;;;33.63;15.93;;;14.20;99.90;;;;;;5071780;28;20047;-53
2024/03/06 12:11:44;;;;;;;35.30;16.80;;;13.60;99.90;;;;;;5071639;28;20033;-54
2024/03/06 12:14:17;;;;;;;;;;;13.20;99.90;;;;;;5072399;28;20032;-55
2024/03/06 12:16:44;;;;;;;31.25;13.82;;;13.10;99.90;;;;;;5071601;28;19923;-53
2024/03/06 12:19:10;;;;;;;29.42;14.65;;;12.80;99.90;;;;;;5071661;28;20043;-52
2024/03/06 12:21:37;;;;;;;27.98;13.25;;;12.50;99.90;;;;;;5071530;28;20024;-55
2024/03/06 12:24:08;;;;;;;28.65;13.30;;;12.50;99.90;;;;;;5071570;28;20020;-55
2024/03/06 12:26:34;;;;;;;27.00;12.52;;;12.40;99.90;;;;;;5071612;28;20040;-54
2024/03/06 12:29:12;;;;;;;27.73;12.27;;;12.20;99.90;;;;;;5071332;28;20424;-55
2024/03/06 12:31:39;;;;;;;26.73;12.20;;;12.10;99.90;;;;;;5071381;28;20031;-55
2024/03/06 12:34:06;;;;;;;28.67;13.07;;;12.30;99.90;;;;;;5071644;28;20033;-53